sensor_id;sensor_type;location;lat;lon;timestamp;pressure;altitude;pressure_sealevel;temperature;humidity
25610;BME280;13479;49.044;8.716;2023-01-28T05:00:40;99404.34;;;3.19;70.41
25610;BME280;13479;49.044;8.716;2023-01-28T05:03:06;99427.47;;;3.11;70.63
25610;BME280;13479;49.044;8.716;2023-01-28T05:05:31;99444.34;;;3.05;70.89
25610;BME280;13479;49.044;8.716;2023-01-28T05:07:57;99452.88;;;2.91;71.86
25610;BME280;13479;49.044;8.716;2023-01-28T05:10:23;99474.53;;;2.96;72.68
25610;BME280;13479;49.044;8.716;2023-01-28T05:12:49;99492.59;;;2.83;72.95
25610;BME280;13479;49.044;8.716;2023-01-28T05:15:16;99521.16;;;2.89;73.22
25610;BME280;13479;49.044;8.716;2023-01-28T05:17:42;99538.75;;;2.87;73.91
25610;BME280;13479;49.044;8.716;2023-01-28T05:20:09;99563.19;;;2.88;74.21
25610;BME280;13479;49.044;8.716;2023-01-28T05:22:34;99588.00;;;2.81;74.82
25610;BME280;13479;49.044;8.716;2023-01-28T05:27:30;99618.56;;;2.61;75.04
25610;BME280;13479;49.044;8.716;2023-01-28T05:29:57;99630.22;;;2.54;75.79
25610;BME280;13479;49.044;8.716;2023-01-28T05:32:22;99645.31;;;2.49;76.17
25610;BME280;13479;49.044;8.716;2023-01-28T05:34:47;99667.13;;;2.49;76.51
25610;BME280;13479;49.044;8.716;2023-01-28T05:37:12;99685.94;;;2.38;77.09
25610;BME280;13479;49.044;8.716;2023-01-28T05:39:38;99705.28;;;2.56;76.58
25610;BME280;13479;49.044;8.716;2023-01-28T05:42:03;99732.34;;;2.57;76.32
25610;BME280;13479;49.044;8.716;2023-01-28T05:44:28;99727.09;;;2.57;77.03
25610;BME280;13479;49.044;8.716;2023-01-28T05:46:53;99730.50;;;2.59;77.19
25610;BME280;13479;49.044;8.716;2023-01-28T05:49:19;99735.28;;;2.49;77.89
25610;BME280;13479;49.044;8.716;2023-01-28T05:51:44;99735.97;;;2.32;77.70
25610;BME280;13479;49.044;8.716;2023-01-28T05:54:09;99750.34;;;2.22;78.69
25610;BME280;13479;49.044;8.716;2023-01-28T05:56:35;99769.69;;;2.19;78.80
25610;BME280;13479;49.044;8.716;2023-01-28T05:59:01;99802.06;;;2.40;79.37
25610;BME280;13479;49.044;8.716;2023-01-28T06:01:27;99839.34;;;2.47;78.85
25610;BME280;13479;49.044;8.716;2023-01-28T06:03:53;99845.63;;;2.43;79.31
25610;BME280;13479;49.044;8.716;2023-01-28T06:06:18;99834.25;;;2.42;78.98
25610;BME280;13479;49.044;8.716;2023-01-28T06:08:43;99843.63;;;2.50;79.15
25610;BME280;13479;49.044;8.716;2023-01-28T06:11:08;99865.56;;;2.69;78.57
25610;BME280;13479;49.044;8.716;2023-01-28T06:13:34;99884.78;;;2.70;78.65
25610;BME280;13479;49.044;8.716;2023-01-28T06:15:59;99915.16;;;2.75;78.33
25610;BME280;13479;49.044;8.716;2023-01-28T06:18:24;99918.34;;;2.60;77.67
25610;BME280;13479;49.044;8.716;2023-01-28T06:20:51;99907.19;;;2.55;78.21
25610;BME280;13479;49.044;8.716;2023-01-28T06:23:17;99893.41;;;2.50;78.74
25610;BME280;13479;49.044;8.716;2023-01-28T06:25:42;99880.88;;;2.34;78.88
25610;BME280;13479;49.044;8.716;2023-01-28T06:28:07;99866.38;;;2.25;79.40
25610;BME280;13479;49.044;8.716;2023-01-28T06:30:33;99860.66;;;2.15;79.47
25610;BME280;13479;49.044;8.716;2023-01-28T06:32:58;99867.97;;;2.29;79.48
25610;BME280;13479;49.044;8.716;2023-01-28T06:35:23;99891.03;;;2.20;79.58
25610;BME280;13479;49.044;8.716;2023-01-28T06:37:49;99899.69;;;2.22;79.82
25610;BME280;13479;49.044;8.716;2023-01-28T06:40:14;99910.06;;;2.25;80.48
25610;BME280;13479;49.044;8.716;2023-01-28T06:42:40;99912.94;;;2.19;80.48
25610;BME280;13479;49.044;8.716;2023-01-28T06:45:05;99903.72;;;2.08;80.44
25610;BME280;13479;49.044;8.716;2023-01-28T06:47:31;99922.63;;;2.16;80.87
25610;BME280;13479;49.044;8.716;2023-01-28T06:49:56;99934.91;;;2.14;80.73
25610;BME280;13479;49.044;8.716;2023-01-28T06:52:21;99948.25;;;2.08;80.87
25610;BME280;13479;49.044;8.716;2023-01-28T06:54:47;99942.69;;;2.16;81.62
25610;BME280;13479;49.044;8.716;2023-01-28T06:57:12;99952.53;;;2.09;81.67
25610;BME280;13479;49.044;8.716;2023-01-28T06:59:37;99965.88;;;2.03;81.98
25610;BME280;13479;49.044;8.716;2023-01-28T07:02:02;99975.34;;;2.07;82.24
25610;BME280;13479;49.044;8.716;2023-01-28T07:04:28;99989.13;;;2.12;82.40
25610;BME280;13479;49.044;8.716;2023-01-28T07:06:53;99996.50;;;2.01;82.56
25610;BME280;13479;49.044;8.716;2023-01-28T07:09:19;99998.94;;;2.07;82.83
25610;BME280;13479;49.044;8.716;2023-01-28T07:11:44;100013.41;;;2.18;83.20
25610;BME280;13479;49.044;8.716;2023-01-28T07:14:09;100031.50;;;2.24;82.42
25610;BME280;13479;49.044;8.716;2023-01-28T07:16:34;100047.06;;;2.28;82.73
25610;BME280;13479;49.044;8.716;2023-01-28T07:19:00;100051.56;;;2.25;82.59
25610;BME280;13479;49.044;8.716;2023-01-28T07:21:25;100032.38;;;2.24;82.76
25610;BME280;13479;49.044;8.716;2023-01-28T07:23:50;100037.88;;;2.42;82.34
25610;BME280;13479;49.044;8.716;2023-01-28T07:26:15;100059.91;;;2.36;82.18
25610;BME280;13479;49.044;8.716;2023-01-28T07:28:41;100074.28;;;2.50;81.55
25610;BME280;13479;49.044;8.716;2023-01-28T07:31:06;100090.94;;;2.49;81.11
25610;BME280;13479;49.044;8.716;2023-01-28T07:33:31;100067.53;;;2.42;81.05
25610;BME280;13479;49.044;8.716;2023-01-28T07:35:57;100039.84;;;2.35;81.56
25610;BME280;13479;49.044;8.716;2023-01-28T07:38:22;100045.47;;;2.50;81.21
25610;BME280;13479;49.044;8.716;2023-01-28T07:40:47;100069.84;;;2.52;80.83
25610;BME280;13479;49.044;8.716;2023-01-28T07:43:13;100072.34;;;2.55;80.13
25610;BME280;13479;49.044;8.716;2023-01-28T07:45:38;100060.22;;;2.52;80.58
25610;BME280;13479;49.044;8.716;2023-01-28T07:48:06;100051.59;;;2.49;80.84
25610;BME280;13479;49.044;8.716;2023-01-28T07:50:33;100021.81;;;2.51;81.20
25610;BME280;13479;49.044;8.716;2023-01-28T07:53:02;100039.13;;;2.55;80.32
25610;BME280;13479;49.044;8.716;2023-01-28T07:55:28;100032.28;;;2.51;81.14
25610;BME280;13479;49.044;8.716;2023-01-28T07:57:55;100024.22;;;2.57;81.28
25610;BME280;13479;49.044;8.716;2023-01-28T08:00:22;100049.81;;;2.74;80.04
25610;BME280;13479;49.044;8.716;2023-01-28T08:02:48;100058.78;;;2.67;80.64
25610;BME280;13479;49.044;8.716;2023-01-28T08:05:18;100037.59;;;2.73;80.47
25610;BME280;13479;49.044;8.716;2023-01-28T08:07:44;100069.56;;;2.83;79.58
25610;BME280;13479;49.044;8.716;2023-01-28T08:10:11;100087.94;;;2.83;79.35
25610;BME280;13479;49.044;8.716;2023-01-28T08:12:37;100089.59;;;2.86;79.51
25610;BME280;13479;49.044;8.716;2023-01-28T08:15:03;100078.78;;;2.93;78.83
25610;BME280;13479;49.044;8.716;2023-01-28T08:17:30;100044.56;;;2.74;79.21
25610;BME280;13479;49.044;8.716;2023-01-28T08:19:55;100023.44;;;2.77;79.26
25610;BME280;13479;49.044;8.716;2023-01-28T08:22:24;100002.47;;;2.77;79.48
25610;BME280;13479;49.044;8.716;2023-01-28T08:24:49;100030.50;;;2.99;79.12
25610;BME280;13479;49.044;8.716;2023-01-28T08:27:15;100043.75;;;2.96;78.71
25610;BME280;13479;49.044;8.716;2023-01-28T08:29:40;100060.09;;;3.03;78.44
25610;BME280;13479;49.044;8.716;2023-01-28T08:32:05;100066.94;;;3.07;78.07
25610;BME280;13479;49.044;8.716;2023-01-28T08:34:30;100058.44;;;3.00;78.38
25610;BME280;13479;49.044;8.716;2023-01-28T08:36:56;100036.69;;;2.98;78.80
25610;BME280;13479;49.044;8.716;2023-01-28T08:39:21;100014.88;;;2.96;78.55
25610;BME280;13479;49.044;8.716;2023-01-28T08:41:46;100010.47;;;2.97;79.01
25610;BME280;13479;49.044;8.716;2023-01-28T08:44:11;100005.06;;;3.01;79.00
25610;BME280;13479;49.044;8.716;2023-01-28T08:46:37;100026.03;;;3.01;78.25
25610;BME280;13479;49.044;8.716;2023-01-28T08:49:02;100060.47;;;3.16;78.19
25610;BME280;13479;49.044;8.716;2023-01-28T08:51:27;100065.00;;;3.12;77.25
25610;BME280;13479;49.044;8.716;2023-01-28T08:53:52;100048.38;;;3.12;77.73
25610;BME280;13479;49.044;8.716;2023-01-28T08:56:18;100038.94;;;3.07;77.70
25610;BME280;13479;49.044;8.716;2023-01-28T08:58:43;100037.16;;;3.08;77.71
25610;BME280;13479;49.044;8.716;2023-01-28T09:01:09;100003.22;;;3.03;78.28
25610;BME280;13479;49.044;8.716;2023-01-28T09:03:34;100032.28;;;3.21;77.06
25610;BME280;13479;49.044;8.716;2023-01-28T09:06:01;100021.91;;;3.18;77.27
25610;BME280;13479;49.044;8.716;2023-01-28T09:08:26;100008.25;;;3.09;78.13
25610;BME280;13479;49.044;8.716;2023-01-28T09:10:55;99990.78;;;3.08;78.06
25610;BME280;13479;49.044;8.716;2023-01-28T09:13:20;99969.06;;;3.05;78.32
25610;BME280;13479;49.044;8.716;2023-01-28T09:15:46;99969.97;;;3.26;77.94
25610;BME280;13479;49.044;8.716;2023-01-28T09:18:11;99994.91;;;3.36;77.93
25610;BME280;13479;49.044;8.716;2023-01-28T09:20:37;100024.66;;;3.37;77.26
25610;BME280;13479;49.044;8.716;2023-01-28T09:23:02;100069.53;;;3.53;76.52
25610;BME280;13479;49.044;8.716;2023-01-28T09:25:28;100057.63;;;3.44;77.05
25610;BME280;13479;49.044;8.716;2023-01-28T09:27:53;100032.16;;;3.46;76.82
25610;BME280;13479;49.044;8.716;2023-01-28T09:30:19;100045.03;;;3.52;77.05
25610;BME280;13479;49.044;8.716;2023-01-28T09:32:44;100022.13;;;3.56;77.46
25610;BME280;13479;49.044;8.716;2023-01-28T09:35:09;100032.19;;;3.67;76.78
25610;BME280;13479;49.044;8.716;2023-01-28T09:37:35;100066.69;;;3.80;76.12
25610;BME280;13479;49.044;8.716;2023-01-28T09:40:01;100107.91;;;3.78;74.67
25610;BME280;13479;49.044;8.716;2023-01-28T09:45:18;100077.78;;;3.86;74.11
25610;BME280;13479;49.044;8.716;2023-01-28T09:47:51;100054.34;;;3.82;74.21
25610;BME280;13479;49.044;8.716;2023-01-28T09:50:37;100017.56;;;3.82;74.72
25610;BME280;13479;49.044;8.716;2023-01-28T09:53:18;100034.78;;;3.89;74.14
25610;BME280;13479;49.044;8.716;2023-01-28T09:56:04;100015.75;;;3.84;74.98
25610;BME280;13479;49.044;8.716;2023-01-28T09:58:31;99985.91;;;3.85;75.34
25610;BME280;13479;49.044;8.716;2023-01-28T10:01:17;100017.06;;;3.94;74.74
25610;BME280;13479;49.044;8.716;2023-01-28T10:09:48;100024.84;;;3.96;74.84
25610;BME280;13479;49.044;8.716;2023-01-28T10:12:43;99993.41;;;3.74;75.16
25610;BME280;13479;49.044;8.716;2023-01-28T10:18:00;99957.53;;;3.93;75.22
25610;BME280;13479;49.044;8.716;2023-01-28T10:20:29;99950.84;;;3.86;75.13
25610;BME280;13479;49.044;8.716;2023-01-28T10:23:36;99945.31;;;3.92;75.22
25610;BME280;13479;49.044;8.716;2023-01-28T10:25:59;99931.25;;;3.93;75.68
25610;BME280;13479;49.044;8.716;2023-01-28T10:28:28;99937.22;;;3.97;75.59
25610;BME280;13479;49.044;8.716;2023-01-28T10:30:54;99952.59;;;4.06;75.42
25610;BME280;13479;49.044;8.716;2023-01-28T10:33:37;100052.13;;;4.14;73.05
25610;BME280;13479;49.044;8.716;2023-01-28T10:36:04;100070.47;;;4.15;73.13
25610;BME280;13479;49.044;8.716;2023-01-28T10:38:31;100037.78;;;4.00;73.97
25610;BME280;13479;49.044;8.716;2023-01-28T10:40:59;100023.75;;;4.01;74.01
25610;BME280;13479;49.044;8.716;2023-01-28T10:43:29;100026.16;;;4.06;73.82
25610;BME280;13479;49.044;8.716;2023-01-28T10:46:20;100055.03;;;3.87;72.67
25610;BME280;13479;49.044;8.716;2023-01-28T10:48:55;100011.00;;;3.71;73.94
25610;BME280;13479;49.044;8.716;2023-01-28T10:51:33;99927.94;;;3.69;74.76
25610;BME280;13479;49.044;8.716;2023-01-28T10:53:58;99905.44;;;3.63;75.54
25610;BME280;13479;49.044;8.716;2023-01-28T10:56:26;99888.88;;;3.61;75.17
25610;BME280;13479;49.044;8.716;2023-01-28T10:59:05;99871.41;;;3.60;75.38
25610;BME280;13479;49.044;8.716;2023-01-28T11:01:39;99872.59;;;3.74;75.72
25610;BME280;13479;49.044;8.716;2023-01-28T11:04:05;99922.41;;;3.75;75.03
25610;BME280;13479;49.044;8.716;2023-01-28T11:06:38;99900.81;;;3.68;75.85
25610;BME280;13479;49.044;8.716;2023-01-28T11:09:19;99877.25;;;3.67;76.31
25610;BME280;13479;49.044;8.716;2023-01-28T11:11:45;99860.50;;;3.69;76.17
25610;BME280;13479;49.044;8.716;2023-01-28T11:14:18;99877.56;;;3.80;75.26
25610;BME280;13479;49.044;8.716;2023-01-28T11:16:44;99895.09;;;3.79;75.67
25610;BME280;13479;49.044;8.716;2023-01-28T11:19:10;99969.16;;;3.88;74.44
25610;BME280;13479;49.044;8.716;2023-01-28T11:21:36;100004.94;;;3.90;74.25
25610;BME280;13479;49.044;8.716;2023-01-28T11:24:13;100033.09;;;3.88;73.70
25610;BME280;13479;49.044;8.716;2023-01-28T11:26:43;100042.13;;;3.81;73.81
25610;BME280;13479;49.044;8.716;2023-01-28T11:29:27;100016.44;;;3.67;74.28
25610;BME280;13479;49.044;8.716;2023-01-28T11:31:55;99990.38;;;3.62;74.12
25610;BME280;13479;49.044;8.716;2023-01-28T11:34:25;99999.56;;;3.52;74.11
25610;BME280;13479;49.044;8.716;2023-01-28T11:36:53;100029.25;;;3.54;73.56
25610;BME280;13479;49.044;8.716;2023-01-28T11:39:22;100043.28;;;3.53;73.32
25610;BME280;13479;49.044;8.716;2023-01-28T11:41:49;100010.84;;;3.54;73.63
25610;BME280;13479;49.044;8.716;2023-01-28T11:44:21;100072.69;;;3.61;72.37
25610;BME280;13479;49.044;8.716;2023-01-28T11:47:04;100129.50;;;3.64;71.05
25610;BME280;13479;49.044;8.716;2023-01-28T11:49:40;100066.84;;;3.54;72.42
25610;BME280;13479;49.044;8.716;2023-01-28T11:58:32;100097.91;;;3.88;70.87
25610;BME280;13479;49.044;8.716;2023-01-28T12:03:54;100100.75;;;4.04;70.06
25610;BME280;13479;49.044;8.716;2023-01-28T12:15:02;100102.84;;;4.37;67.47
25610;BME280;13479;49.044;8.716;2023-01-28T12:26:38;99948.38;;;4.42;66.66
25610;BME280;13479;49.044;8.716;2023-01-28T12:29:32;100007.41;;;4.55;66.18
25610;BME280;13479;49.044;8.716;2023-01-28T12:32:12;100043.94;;;4.61;64.46
25610;BME280;13479;49.044;8.716;2023-01-28T12:35:05;99973.97;;;4.57;65.09
25610;BME280;13479;49.044;8.716;2023-01-28T12:37:59;99977.13;;;4.66;64.56
25610;BME280;13479;49.044;8.716;2023-01-28T12:40:49;99952.00;;;4.77;64.28
25610;BME280;13479;49.044;8.716;2023-01-28T12:46:08;99984.19;;;5.02;62.75
25610;BME280;13479;49.044;8.716;2023-01-28T12:48:41;99960.28;;;5.06;62.52
25610;BME280;13479;49.044;8.716;2023-01-28T12:51:14;99945.19;;;5.10;61.70
25610;BME280;13479;49.044;8.716;2023-01-28T12:54:04;99944.50;;;5.06;61.67
25610;BME280;13479;49.044;8.716;2023-01-28T12:56:35;99920.09;;;5.03;62.04
25610;BME280;13479;49.044;8.716;2023-01-28T12:59:09;99901.53;;;5.06;61.92
25610;BME280;13479;49.044;8.716;2023-01-28T13:01:41;99887.66;;;5.02;61.20
25610;BME280;13479;49.044;8.716;2023-01-28T13:04:15;99897.63;;;4.95;61.81
25610;BME280;13479;49.044;8.716;2023-01-28T13:06:49;99851.66;;;4.85;62.55
25610;BME280;13479;49.044;8.716;2023-01-28T13:09:19;99842.19;;;4.81;62.18
25610;BME280;13479;49.044;8.716;2023-01-28T13:11:47;99841.72;;;4.73;62.63
25610;BME280;13479;49.044;8.716;2023-01-28T13:14:15;99838.16;;;4.74;62.47
25610;BME280;13479;49.044;8.716;2023-01-28T13:16:40;99887.22;;;4.75;61.90
25610;BME280;13479;49.044;8.716;2023-01-28T13:21:44;99895.19;;;4.73;62.11
25610;BME280;13479;49.044;8.716;2023-01-28T13:31:44;99897.78;;;4.56;61.90
25610;BME280;13479;49.044;8.716;2023-01-28T13:34:36;99889.75;;;4.59;61.38
25610;BME280;13479;49.044;8.716;2023-01-28T13:40:06;99920.09;;;4.66;60.55
25610;BME280;13479;49.044;8.716;2023-01-28T13:42:33;99914.69;;;4.50;60.80
25610;BME280;13479;49.044;8.716;2023-01-28T13:47:43;99886.69;;;4.49;61.35
25610;BME280;13479;49.044;8.716;2023-01-28T13:50:26;99857.19;;;4.42;62.14
25610;BME280;13479;49.044;8.716;2023-01-28T13:55:41;99852.69;;;4.63;61.69
25610;BME280;13479;49.044;8.716;2023-01-28T14:15:03;99904.44;;;4.63;60.66
25610;BME280;13479;49.044;8.716;2023-01-28T14:17:48;99863.28;;;4.62;61.36
25610;BME280;13479;49.044;8.716;2023-01-28T14:20:42;99891.69;;;4.55;60.58
25610;BME280;13479;49.044;8.716;2023-01-28T14:23:20;99879.94;;;4.62;60.76
25610;BME280;13479;49.044;8.716;2023-01-28T14:31:15;99858.09;;;4.60;61.12
25610;BME280;13479;49.044;8.716;2023-01-28T14:33:42;99902.59;;;4.65;61.15
25610;BME280;13479;49.044;8.716;2023-01-28T14:36:10;99921.34;;;4.57;60.52
25610;BME280;13479;49.044;8.716;2023-01-28T14:38:39;99912.16;;;4.48;61.29
25610;BME280;13479;49.044;8.716;2023-01-28T14:41:06;99883.91;;;4.52;61.03
25610;BME280;13479;49.044;8.716;2023-01-28T14:43:31;99869.19;;;4.48;61.44
25610;BME280;13479;49.044;8.716;2023-01-28T14:49:13;99937.88;;;4.42;60.71
25610;BME280;13479;49.044;8.716;2023-01-28T14:59:48;99845.06;;;4.21;61.44
25610;BME280;13479;49.044;8.716;2023-01-28T15:02:22;99839.09;;;4.17;62.11
25610;BME280;13479;49.044;8.716;2023-01-28T15:04:49;99843.66;;;4.13;61.67
25610;BME280;13479;49.044;8.716;2023-01-28T15:07:19;99859.22;;;4.18;61.44
25610;BME280;13479;49.044;8.716;2023-01-28T15:09:45;99860.03;;;4.18;61.62
25610;BME280;13479;49.044;8.716;2023-01-28T15:12:12;99904.88;;;4.15;61.34
25610;BME280;13479;49.044;8.716;2023-01-28T15:14:38;99921.00;;;4.08;60.89
25610;BME280;13479;49.044;8.716;2023-01-28T15:17:04;99889.81;;;4.00;61.79
25610;BME280;13479;49.044;8.716;2023-01-28T15:19:33;99863.81;;;3.94;61.93
25610;BME280;13479;49.044;8.716;2023-01-28T15:22:01;99803.31;;;3.95;62.76
25610;BME280;13479;49.044;8.716;2023-01-28T15:24:27;99787.41;;;3.98;63.02
25610;BME280;13479;49.044;8.716;2023-01-28T15:26:53;99761.69;;;4.05;62.84
25610;BME280;13479;49.044;8.716;2023-01-28T15:31:54;99782.97;;;4.18;62.03
25610;BME280;13479;49.044;8.716;2023-01-28T15:34:19;99858.28;;;4.19;61.48
25610;BME280;13479;49.044;8.716;2023-01-28T15:36:46;99950.00;;;4.25;60.59
25610;BME280;13479;49.044;8.716;2023-01-28T15:39:18;99998.22;;;4.24;59.84
25610;BME280;13479;49.044;8.716;2023-01-28T15:41:48;100005.47;;;4.19;60.86
25610;BME280;13479;49.044;8.716;2023-01-28T15:44:20;100030.50;;;4.28;60.26
25610;BME280;13479;49.044;8.716;2023-01-28T15:46:53;100029.94;;;4.21;59.60
25610;BME280;13479;49.044;8.716;2023-01-28T15:49:18;100054.34;;;4.23;58.57
25610;BME280;13479;49.044;8.716;2023-01-28T15:51:48;100044.84;;;4.21;59.29
25610;BME280;13479;49.044;8.716;2023-01-28T15:54:18;100027.44;;;4.18;59.21
25610;BME280;13479;49.044;8.716;2023-01-28T15:56:43;100000.97;;;4.02;60.46
25610;BME280;13479;49.044;8.716;2023-01-28T15:59:17;99946.78;;;3.99;59.81
25610;BME280;13479;49.044;8.716;2023-01-28T16:01:43;100013.22;;;4.01;59.66
25610;BME280;13479;49.044;8.716;2023-01-28T16:04:24;100020.16;;;4.04;58.80
25610;BME280;13479;49.044;8.716;2023-01-28T16:06:50;100006.66;;;4.12;58.83
25610;BME280;13479;49.044;8.716;2023-01-28T16:09:29;99995.75;;;4.00;59.40
25610;BME280;13479;49.044;8.716;2023-01-28T16:12:10;99974.88;;;3.97;59.94
25610;BME280;13479;49.044;8.716;2023-01-28T16:17:02;99866.03;;;3.63;61.37
25610;BME280;13479;49.044;8.716;2023-01-28T16:19:32;99820.06;;;3.74;61.10
25610;BME280;13479;49.044;8.716;2023-01-28T16:22:00;99774.63;;;3.71;61.46
25610;BME280;13479;49.044;8.716;2023-01-28T16:24:27;99757.28;;;3.67;61.44
25610;BME280;13479;49.044;8.716;2023-01-28T16:26:56;99747.09;;;3.80;61.47
25610;BME280;13479;49.044;8.716;2023-01-28T16:29:21;99767.31;;;3.78;61.35
25610;BME280;13479;49.044;8.716;2023-01-28T16:31:47;99775.91;;;3.82;60.99
25610;BME280;13479;49.044;8.716;2023-01-28T16:34:12;99793.16;;;3.88;61.29
25610;BME280;13479;49.044;8.716;2023-01-28T16:36:37;99811.75;;;3.83;60.80
25610;BME280;13479;49.044;8.716;2023-01-28T16:39:03;99810.69;;;3.68;61.86
25610;BME280;13479;49.044;8.716;2023-01-28T16:41:31;99790.25;;;3.75;61.39
25610;BME280;13479;49.044;8.716;2023-01-28T16:43:57;99813.66;;;3.79;60.99
25610;BME280;13479;49.044;8.716;2023-01-28T16:46:26;99831.97;;;3.81;60.98
25610;BME280;13479;49.044;8.716;2023-01-28T16:48:51;99860.44;;;3.90;60.74
25610;BME280;13479;49.044;8.716;2023-01-28T16:51:17;99889.22;;;3.93;60.04
25610;BME280;13479;49.044;8.716;2023-01-28T16:53:44;99904.28;;;3.90;60.34
25610;BME280;13479;49.044;8.716;2023-01-28T16:56:23;99907.66;;;3.73;60.84
25610;BME280;13479;49.044;8.716;2023-01-28T16:58:49;99864.44;;;3.59;60.80
25610;BME280;13479;49.044;8.716;2023-01-28T17:01:15;99832.94;;;3.59;61.34
25610;BME280;13479;49.044;8.716;2023-01-28T17:03:40;99827.81;;;3.56;61.31
25610;BME280;13479;49.044;8.716;2023-01-28T17:06:06;99812.06;;;3.56;61.18
25610;BME280;13479;49.044;8.716;2023-01-28T17:08:32;99805.63;;;3.63;61.19
25610;BME280;13479;49.044;8.716;2023-01-28T17:10:58;99804.13;;;3.58;61.78
25610;BME280;13479;49.044;8.716;2023-01-28T17:13:23;99804.97;;;3.58;61.47
25610;BME280;13479;49.044;8.716;2023-01-28T17:15:49;99833.41;;;3.69;60.60
25610;BME280;13479;49.044;8.716;2023-01-28T17:18:14;99873.91;;;3.63;61.10
25610;BME280;13479;49.044;8.716;2023-01-28T17:20:39;99882.00;;;3.59;60.94
25610;BME280;13479;49.044;8.716;2023-01-28T17:23:05;99891.75;;;3.55;60.89
25610;BME280;13479;49.044;8.716;2023-01-28T17:25:36;99934.44;;;3.60;59.93
25610;BME280;13479;49.044;8.716;2023-01-28T17:28:03;99933.13;;;3.50;60.41
25610;BME280;13479;49.044;8.716;2023-01-28T17:30:28;99908.56;;;3.51;60.67
25610;BME280;13479;49.044;8.716;2023-01-28T17:32:54;99902.84;;;3.41;60.56
25610;BME280;13479;49.044;8.716;2023-01-28T17:35:19;99920.22;;;3.44;60.45
25610;BME280;13479;49.044;8.716;2023-01-28T17:37:44;99915.25;;;3.37;61.01
25610;BME280;13479;49.044;8.716;2023-01-28T17:40:10;99935.41;;;3.37;60.33
25610;BME280;13479;49.044;8.716;2023-01-28T17:42:36;99940.00;;;3.32;60.77
25610;BME280;13479;49.044;8.716;2023-01-28T17:45:03;99922.00;;;3.22;61.11
25610;BME280;13479;49.044;8.716;2023-01-28T17:47:29;99892.41;;;3.19;61.37
25610;BME280;13479;49.044;8.716;2023-01-28T17:49:55;99897.72;;;3.17;61.57
25610;BME280;13479;49.044;8.716;2023-01-28T17:52:20;99899.50;;;3.17;61.15
25610;BME280;13479;49.044;8.716;2023-01-28T17:54:46;99881.31;;;3.12;61.08
25610;BME280;13479;49.044;8.716;2023-01-28T17:57:11;99851.66;;;3.10;61.73
25610;BME280;13479;49.044;8.716;2023-01-28T17:59:36;99836.63;;;3.14;61.87
25610;BME280;13479;49.044;8.716;2023-01-28T18:02:01;99820.88;;;3.14;61.51
25610;BME280;13479;49.044;8.716;2023-01-28T18:04:27;99882.38;;;3.29;61.10
25610;BME280;13479;49.044;8.716;2023-01-28T18:06:52;99863.38;;;3.01;61.85
25610;BME280;13479;49.044;8.716;2023-01-28T18:09:17;99822.41;;;2.99;62.55
25610;BME280;13479;49.044;8.716;2023-01-28T18:11:43;99849.31;;;3.24;60.93
25610;BME280;13479;49.044;8.716;2023-01-28T18:14:08;99865.19;;;3.21;60.84
25610;BME280;13479;49.044;8.716;2023-01-28T18:16:33;99890.56;;;3.21;60.95
25610;BME280;13479;49.044;8.716;2023-01-28T18:18:59;99921.50;;;3.13;60.97
25610;BME280;13479;49.044;8.716;2023-01-28T18:21:36;99912.91;;;3.09;61.16
25610;BME280;13479;49.044;8.716;2023-01-28T18:24:02;99877.69;;;2.94;61.82
25610;BME280;13479;49.044;8.716;2023-01-28T18:26:28;99869.44;;;3.03;61.68
25610;BME280;13479;49.044;8.716;2023-01-28T18:28:54;99898.81;;;3.12;60.74
25610;BME280;13479;49.044;8.716;2023-01-28T18:31:19;99895.97;;;2.96;61.80
25610;BME280;13479;49.044;8.716;2023-01-28T18:33:45;99919.75;;;3.13;61.22
25610;BME280;13479;49.044;8.716;2023-01-28T18:36:11;99967.00;;;3.13;60.29
25610;BME280;13479;49.044;8.716;2023-01-28T18:38:37;100031.94;;;3.30;59.56
25610;BME280;13479;49.044;8.716;2023-01-28T18:41:02;100086.72;;;3.16;59.73
25610;BME280;13479;49.044;8.716;2023-01-28T18:43:27;100064.38;;;3.05;60.16
25610;BME280;13479;49.044;8.716;2023-01-28T18:45:56;100090.50;;;3.08;59.67
25610;BME280;13479;49.044;8.716;2023-01-28T18:48:23;100074.63;;;2.88;60.61
25610;BME280;13479;49.044;8.716;2023-01-28T18:50:53;100045.31;;;3.00;60.22
25610;BME280;13479;49.044;8.716;2023-01-28T18:53:19;100045.47;;;2.97;60.45
25610;BME280;13479;49.044;8.716;2023-01-28T18:55:44;100067.72;;;3.09;59.67
25610;BME280;13479;49.044;8.716;2023-01-28T18:58:10;100046.59;;;2.90;60.74
25610;BME280;13479;49.044;8.716;2023-01-28T19:00:35;100059.94;;;3.07;59.97
25610;BME280;13479;49.044;8.716;2023-01-28T19:03:01;100065.09;;;2.87;60.82
25610;BME280;13479;49.044;8.716;2023-01-28T19:05:26;100054.09;;;2.99;60.24
25610;BME280;13479;49.044;8.716;2023-01-28T19:07:52;100082.91;;;3.01;60.15
25610;BME280;13479;49.044;8.716;2023-01-28T19:10:17;100056.63;;;2.78;60.70
25610;BME280;13479;49.044;8.716;2023-01-28T19:12:44;100027.59;;;2.83;60.38
25610;BME280;13479;49.044;8.716;2023-01-28T19:15:09;100008.47;;;2.81;60.82
25610;BME280;13479;49.044;8.716;2023-01-28T19:17:34;100072.31;;;2.80;60.34
25610;BME280;13479;49.044;8.716;2023-01-28T19:20:00;100050.00;;;2.68;60.91
25610;BME280;13479;49.044;8.716;2023-01-28T19:22:25;100005.69;;;2.62;61.29
25610;BME280;13479;49.044;8.716;2023-01-28T19:24:50;99971.47;;;2.65;61.04
25610;BME280;13479;49.044;8.716;2023-01-28T19:27:15;99979.44;;;2.86;60.87
25610;BME280;13479;49.044;8.716;2023-01-28T19:29:41;99998.56;;;2.88;59.77
25610;BME280;13479;49.044;8.716;2023-01-28T19:32:07;100051.03;;;2.88;59.59
25610;BME280;13479;49.044;8.716;2023-01-28T19:34:32;100092.06;;;2.90;59.54
25610;BME280;13479;49.044;8.716;2023-01-28T19:36:57;100125.00;;;2.98;59.05
25610;BME280;13479;49.044;8.716;2023-01-28T19:39:23;100147.31;;;2.86;59.30
25610;BME280;13479;49.044;8.716;2023-01-28T19:41:48;100123.06;;;2.79;59.54
25610;BME280;13479;49.044;8.716;2023-01-28T19:44:13;100148.72;;;2.94;58.93
25610;BME280;13479;49.044;8.716;2023-01-28T19:46:38;100130.81;;;2.82;58.81
25610;BME280;13479;49.044;8.716;2023-01-28T19:49:05;100141.09;;;2.88;58.57
25610;BME280;13479;49.044;8.716;2023-01-28T19:51:30;100113.34;;;3.05;59.50
25610;BME280;13479;49.044;8.716;2023-01-28T19:53:56;100085.75;;;2.71;59.95